sensor_id;sensor_type;location;lat;lon;timestamp;P1;durP1;ratioP1;P2;durP2;ratioP2
8654;SDS011;13500;52.514;13.462;2023-04-22T00:00:12;6.53;;;5.40;;
8654;SDS011;13500;52.514;13.462;2023-04-22T00:02:41;8.00;;;6.37;;
8654;SDS011;13500;52.514;13.462;2023-04-22T00:05:10;7.10;;;5.50;;
8654;SDS011;13500;52.514;13.462;2023-04-22T00:07:42;7.93;;;5.23;;
8654;SDS011;13500;52.514;13.462;2023-04-22T00:10:10;7.97;;;5.90;;
8654;SDS011;13500;52.514;13.462;2023-04-22T00:12:40;7.23;;;5.10;;
8654;SDS011;13500;52.514;13.462;2023-04-22T00:15:08;6.90;;;5.77;;
8654;SDS011;13500;52.514;13.462;2023-04-22T00:17:37;6.00;;;5.40;;
8654;SDS011;13500;52.514;13.462;2023-04-22T00:20:06;7.17;;;5.63;;
8654;SDS011;13500;52.514;13.462;2023-04-22T00:22:36;7.40;;;5.57;;
8654;SDS011;13500;52.514;13.462;2023-04-22T00:25:06;6.37;;;5.20;;
8654;SDS011;13500;52.514;13.462;2023-04-22T00:27:36;7.10;;;5.83;;
8654;SDS011;13500;52.514;13.462;2023-04-22T00:30:04;7.43;;;6.00;;
8654;SDS011;13500;52.514;13.462;2023-04-22T00:32:33;8.50;;;5.47;;
8654;SDS011;13500;52.514;13.462;2023-04-22T00:35:01;8.80;;;5.50;;
8654;SDS011;13500;52.514;13.462;2023-04-22T00:37:29;6.83;;;5.97;;
8654;SDS011;13500;52.514;13.462;2023-04-22T00:39:57;6.07;;;5.23;;
8654;SDS011;13500;52.514;13.462;2023-04-22T00:42:25;7.87;;;5.80;;
8654;SDS011;13500;52.514;13.462;2023-04-22T00:44:54;7.57;;;5.70;;
8654;SDS011;13500;52.514;13.462;2023-04-22T00:47:23;7.17;;;5.77;;
8654;SDS011;13500;52.514;13.462;2023-04-22T00:49:52;7.47;;;5.60;;
8654;SDS011;13500;52.514;13.462;2023-04-22T00:52:21;9.20;;;5.87;;
8654;SDS011;13500;52.514;13.462;2023-04-22T00:54:49;7.10;;;5.53;;
8654;SDS011;13500;52.514;13.462;2023-04-22T00:57:18;9.77;;;5.43;;
8654;SDS011;13500;52.514;13.462;2023-04-22T00:59:45;6.20;;;4.83;;
8654;SDS011;13500;52.514;13.462;2023-04-22T01:02:15;6.13;;;5.53;;
8654;SDS011;13500;52.514;13.462;2023-04-22T01:04:45;8.23;;;5.87;;
8654;SDS011;13500;52.514;13.462;2023-04-22T01:07:13;6.00;;;5.27;;
8654;SDS011;13500;52.514;13.462;2023-04-22T01:09:40;8.20;;;6.07;;
8654;SDS011;13500;52.514;13.462;2023-04-22T01:12:08;6.83;;;5.67;;
8654;SDS011;13500;52.514;13.462;2023-04-22T01:14:36;7.80;;;6.13;;
8654;SDS011;13500;52.514;13.462;2023-04-22T01:17:04;7.53;;;5.90;;
8654;SDS011;13500;52.514;13.462;2023-04-22T01:19:37;6.80;;;5.80;;
8654;SDS011;13500;52.514;13.462;2023-04-22T01:22:05;7.10;;;5.53;;
8654;SDS011;13500;52.514;13.462;2023-04-22T01:24:35;10.63;;;5.93;;
8654;SDS011;13500;52.514;13.462;2023-04-22T01:27:03;7.37;;;6.00;;
8654;SDS011;13500;52.514;13.462;2023-04-22T01:29:31;9.93;;;6.10;;
8654;SDS011;13500;52.514;13.462;2023-04-22T01:31:59;8.73;;;5.70;;
8654;SDS011;13500;52.514;13.462;2023-04-22T01:34:28;6.20;;;5.60;;
8654;SDS011;13500;52.514;13.462;2023-04-22T01:36:57;6.83;;;5.20;;
8654;SDS011;13500;52.514;13.462;2023-04-22T01:39:25;9.63;;;5.80;;
8654;SDS011;13500;52.514;13.462;2023-04-22T01:41:54;7.30;;;5.87;;
8654;SDS011;13500;52.514;13.462;2023-04-22T01:44:24;11.70;;;6.37;;
8654;SDS011;13500;52.514;13.462;2023-04-22T01:46:52;10.17;;;6.47;;
8654;SDS011;13500;52.514;13.462;2023-04-22T01:49:20;10.93;;;5.80;;
8654;SDS011;13500;52.514;13.462;2023-04-22T01:51:49;6.77;;;5.97;;
8654;SDS011;13500;52.514;13.462;2023-04-22T01:54:18;7.07;;;6.37;;
8654;SDS011;13500;52.514;13.462;2023-04-22T01:56:49;6.70;;;5.87;;
8654;SDS011;13500;52.514;13.462;2023-04-22T01:59:19;9.07;;;6.37;;
8654;SDS011;13500;52.514;13.462;2023-04-22T02:01:48;9.43;;;6.03;;
8654;SDS011;13500;52.514;13.462;2023-04-22T02:04:17;9.90;;;6.07;;
8654;SDS011;13500;52.514;13.462;2023-04-22T02:06:45;8.97;;;5.90;;
8654;SDS011;13500;52.514;13.462;2023-04-22T02:09:13;8.30;;;5.90;;
8654;SDS011;13500;52.514;13.462;2023-04-22T02:11:41;7.90;;;6.00;;
8654;SDS011;13500;52.514;13.462;2023-04-22T02:14:09;8.87;;;5.57;;
8654;SDS011;13500;52.514;13.462;2023-04-22T02:16:38;8.83;;;6.33;;
8654;SDS011;13500;52.514;13.462;2023-04-22T02:19:07;8.03;;;6.40;;
8654;SDS011;13500;52.514;13.462;2023-04-22T02:21:35;7.43;;;6.13;;
8654;SDS011;13500;52.514;13.462;2023-04-22T02:24:03;9.97;;;6.43;;
8654;SDS011;13500;52.514;13.462;2023-04-22T02:26:31;6.83;;;6.10;;
8654;SDS011;13500;52.514;13.462;2023-04-22T02:29:00;7.83;;;5.93;;
8654;SDS011;13500;52.514;13.462;2023-04-22T02:31:28;7.27;;;5.90;;
8654;SDS011;13500;52.514;13.462;2023-04-22T02:33:57;9.10;;;6.60;;
8654;SDS011;13500;52.514;13.462;2023-04-22T02:36:25;11.13;;;6.10;;
8654;SDS011;13500;52.514;13.462;2023-04-22T02:38:54;7.13;;;6.03;;
8654;SDS011;13500;52.514;13.462;2023-04-22T02:41:22;7.33;;;5.87;;
8654;SDS011;13500;52.514;13.462;2023-04-22T02:43:50;7.93;;;6.33;;
8654;SDS011;13500;52.514;13.462;2023-04-22T02:46:18;9.50;;;6.20;;
8654;SDS011;13500;52.514;13.462;2023-04-22T02:48:46;9.33;;;6.30;;
8654;SDS011;13500;52.514;13.462;2023-04-22T02:51:15;8.57;;;6.07;;
8654;SDS011;13500;52.514;13.462;2023-04-22T02:53:43;10.00;;;6.43;;
8654;SDS011;13500;52.514;13.462;2023-04-22T02:56:11;11.30;;;6.17;;
8654;SDS011;13500;52.514;13.462;2023-04-22T02:58:39;7.50;;;6.00;;
8654;SDS011;13500;52.514;13.462;2023-04-22T03:01:07;7.63;;;6.40;;
8654;SDS011;13500;52.514;13.462;2023-04-22T03:03:35;11.17;;;6.90;;
8654;SDS011;13500;52.514;13.462;2023-04-22T03:06:08;9.10;;;6.40;;
8654;SDS011;13500;52.514;13.462;2023-04-22T03:08:37;7.10;;;6.13;;
8654;SDS011;13500;52.514;13.462;2023-04-22T03:11:05;8.07;;;6.23;;
8654;SDS011;13500;52.514;13.462;2023-04-22T03:13:33;10.77;;;6.27;;
8654;SDS011;13500;52.514;13.462;2023-04-22T03:16:01;9.37;;;5.83;;
8654;SDS011;13500;52.514;13.462;2023-04-22T03:18:29;9.63;;;6.33;;
8654;SDS011;13500;52.514;13.462;2023-04-22T03:20:57;8.43;;;6.80;;
8654;SDS011;13500;52.514;13.462;2023-04-22T03:23:26;9.37;;;6.40;;
8654;SDS011;13500;52.514;13.462;2023-04-22T03:25:55;10.00;;;6.67;;
8654;SDS011;13500;52.514;13.462;2023-04-22T03:28:23;6.97;;;5.90;;
8654;SDS011;13500;52.514;13.462;2023-04-22T03:30:51;8.83;;;6.10;;
8654;SDS011;13500;52.514;13.462;2023-04-22T03:33:19;10.57;;;6.80;;
8654;SDS011;13500;52.514;13.462;2023-04-22T03:35:53;7.30;;;6.60;;
8654;SDS011;13500;52.514;13.462;2023-04-22T03:38:22;8.40;;;6.40;;
8654;SDS011;13500;52.514;13.462;2023-04-22T03:40:50;9.07;;;6.60;;
8654;SDS011;13500;52.514;13.462;2023-04-22T03:43:29;8.03;;;6.53;;
8654;SDS011;13500;52.514;13.462;2023-04-22T03:46:02;9.10;;;6.37;;
8654;SDS011;13500;52.514;13.462;2023-04-22T03:48:32;9.77;;;6.40;;
8654;SDS011;13500;52.514;13.462;2023-04-22T03:51:05;10.10;;;6.60;;
8654;SDS011;13500;52.514;13.462;2023-04-22T03:53:35;8.10;;;6.57;;
8654;SDS011;13500;52.514;13.462;2023-04-22T03:56:04;9.37;;;7.27;;
8654;SDS011;13500;52.514;13.462;2023-04-22T03:58:37;9.67;;;7.10;;
8654;SDS011;13500;52.514;13.462;2023-04-22T04:01:06;10.87;;;6.97;;
8654;SDS011;13500;52.514;13.462;2023-04-22T04:03:35;9.87;;;7.10;;
8654;SDS011;13500;52.514;13.462;2023-04-22T04:06:05;10.70;;;6.73;;
8654;SDS011;13500;52.514;13.462;2023-04-22T04:08:35;10.37;;;6.53;;
8654;SDS011;13500;52.514;13.462;2023-04-22T04:11:03;10.77;;;6.90;;
8654;SDS011;13500;52.514;13.462;2023-04-22T04:13:31;9.37;;;6.97;;
8654;SDS011;13500;52.514;13.462;2023-04-22T04:16:26;10.40;;;7.40;;
8654;SDS011;13500;52.514;13.462;2023-04-22T04:19:01;11.67;;;6.77;;
8654;SDS011;13500;52.514;13.462;2023-04-22T04:21:32;11.17;;;7.30;;
8654;SDS011;13500;52.514;13.462;2023-04-22T04:24:01;9.30;;;6.73;;
8654;SDS011;13500;52.514;13.462;2023-04-22T04:26:32;10.47;;;7.10;;
8654;SDS011;13500;52.514;13.462;2023-04-22T04:29:07;12.57;;;7.63;;
8654;SDS011;13500;52.514;13.462;2023-04-22T04:31:40;8.97;;;7.37;;
8654;SDS011;13500;52.514;13.462;2023-04-22T04:34:09;12.27;;;7.10;;
8654;SDS011;13500;52.514;13.462;2023-04-22T04:36:37;9.97;;;6.90;;
8654;SDS011;13500;52.514;13.462;2023-04-22T04:39:16;10.73;;;7.50;;
8654;SDS011;13500;52.514;13.462;2023-04-22T04:41:44;9.53;;;7.73;;
8654;SDS011;13500;52.514;13.462;2023-04-22T04:44:15;9.20;;;7.17;;
8654;SDS011;13500;52.514;13.462;2023-04-22T04:46:44;11.80;;;8.00;;
8654;SDS011;13500;52.514;13.462;2023-04-22T04:49:12;11.10;;;8.00;;
8654;SDS011;13500;52.514;13.462;2023-04-22T04:51:53;11.87;;;8.13;;
8654;SDS011;13500;52.514;13.462;2023-04-22T04:54:21;9.57;;;8.23;;
8654;SDS011;13500;52.514;13.462;2023-04-22T04:56:49;10.70;;;8.00;;
8654;SDS011;13500;52.514;13.462;2023-04-22T04:59:17;10.27;;;7.97;;
8654;SDS011;13500;52.514;13.462;2023-04-22T05:01:47;12.57;;;7.73;;
8654;SDS011;13500;52.514;13.462;2023-04-22T05:04:16;11.03;;;7.93;;
8654;SDS011;13500;52.514;13.462;2023-04-22T05:06:45;11.57;;;8.03;;
8654;SDS011;13500;52.514;13.462;2023-04-22T05:09:13;12.27;;;7.93;;
8654;SDS011;13500;52.514;13.462;2023-04-22T05:11:42;9.57;;;7.63;;
8654;SDS011;13500;52.514;13.462;2023-04-22T05:14:15;18.20;;;7.77;;
8654;SDS011;13500;52.514;13.462;2023-04-22T05:16:45;18.30;;;8.30;;
8654;SDS011;13500;52.514;13.462;2023-04-22T05:19:15;19.87;;;8.30;;
8654;SDS011;13500;52.514;13.462;2023-04-22T05:21:45;11.80;;;8.10;;
8654;SDS011;13500;52.514;13.462;2023-04-22T05:24:14;14.13;;;8.90;;
8654;SDS011;13500;52.514;13.462;2023-04-22T05:26:42;14.60;;;8.00;;
8654;SDS011;13500;52.514;13.462;2023-04-22T05:29:15;12.10;;;7.77;;
8654;SDS011;13500;52.514;13.462;2023-04-22T05:31:42;14.20;;;7.97;;
8654;SDS011;13500;52.514;13.462;2023-04-22T05:34:10;12.33;;;8.20;;
8654;SDS011;13500;52.514;13.462;2023-04-22T05:36:40;11.23;;;8.10;;
8654;SDS011;13500;52.514;13.462;2023-04-22T05:39:08;13.33;;;8.63;;
8654;SDS011;13500;52.514;13.462;2023-04-22T05:41:37;11.87;;;8.13;;
8654;SDS011;13500;52.514;13.462;2023-04-22T05:44:08;12.57;;;8.57;;
8654;SDS011;13500;52.514;13.462;2023-04-22T05:46:36;10.73;;;8.13;;
8654;SDS011;13500;52.514;13.462;2023-04-22T05:49:04;13.53;;;8.07;;
8654;SDS011;13500;52.514;13.462;2023-04-22T05:52:05;11.50;;;7.90;;
8654;SDS011;13500;52.514;13.462;2023-04-22T05:54:46;12.63;;;7.53;;
8654;SDS011;13500;52.514;13.462;2023-04-22T05:57:14;13.43;;;8.13;;
8654;SDS011;13500;52.514;13.462;2023-04-22T05:59:42;14.40;;;9.83;;
8654;SDS011;13500;52.514;13.462;2023-04-22T06:02:10;13.60;;;8.37;;
8654;SDS011;13500;52.514;13.462;2023-04-22T06:04:39;11.40;;;7.90;;
8654;SDS011;13500;52.514;13.462;2023-04-22T06:07:09;12.87;;;9.23;;
8654;SDS011;13500;52.514;13.462;2023-04-22T06:09:38;13.00;;;10.53;;
8654;SDS011;13500;52.514;13.462;2023-04-22T06:12:06;10.33;;;7.90;;
8654;SDS011;13500;52.514;13.462;2023-04-22T06:14:35;16.10;;;9.47;;
8654;SDS011;13500;52.514;13.462;2023-04-22T06:17:03;14.90;;;8.47;;
8654;SDS011;13500;52.514;13.462;2023-04-22T06:19:31;12.03;;;8.13;;
8654;SDS011;13500;52.514;13.462;2023-04-22T06:21:59;12.90;;;8.47;;
8654;SDS011;13500;52.514;13.462;2023-04-22T06:24:28;10.27;;;7.87;;
8654;SDS011;13500;52.514;13.462;2023-04-22T06:26:58;10.40;;;7.97;;
8654;SDS011;13500;52.514;13.462;2023-04-22T06:29:28;14.00;;;8.57;;
8654;SDS011;13500;52.514;13.462;2023-04-22T06:31:57;11.83;;;8.27;;
8654;SDS011;13500;52.514;13.462;2023-04-22T06:34:25;13.00;;;7.90;;
8654;SDS011;13500;52.514;13.462;2023-04-22T06:36:53;9.33;;;7.50;;
8654;SDS011;13500;52.514;13.462;2023-04-22T06:39:21;9.03;;;7.43;;
8654;SDS011;13500;52.514;13.462;2023-04-22T06:42:13;11.33;;;7.50;;
8654;SDS011;13500;52.514;13.462;2023-04-22T06:45:07;10.03;;;7.83;;
8654;SDS011;13500;52.514;13.462;2023-04-22T06:47:47;11.30;;;7.70;;
8654;SDS011;13500;52.514;13.462;2023-04-22T06:50:20;9.53;;;7.33;;
8654;SDS011;13500;52.514;13.462;2023-04-22T06:52:54;9.30;;;7.23;;
8654;SDS011;13500;52.514;13.462;2023-04-22T06:55:23;11.47;;;7.20;;
8654;SDS011;13500;52.514;13.462;2023-04-22T06:57:52;10.67;;;8.20;;
8654;SDS011;13500;52.514;13.462;2023-04-22T07:00:20;8.63;;;7.63;;
8654;SDS011;13500;52.514;13.462;2023-04-22T07:02:48;10.90;;;7.97;;
8654;SDS011;13500;52.514;13.462;2023-04-22T07:05:16;8.40;;;7.03;;
8654;SDS011;13500;52.514;13.462;2023-04-22T07:07:44;8.70;;;7.17;;
8654;SDS011;13500;52.514;13.462;2023-04-22T07:10:17;10.20;;;7.30;;
8654;SDS011;13500;52.514;13.462;2023-04-22T07:13:06;9.67;;;7.57;;
8654;SDS011;13500;52.514;13.462;2023-04-22T07:15:34;10.00;;;7.43;;
8654;SDS011;13500;52.514;13.462;2023-04-22T07:18:02;9.00;;;7.47;;
8654;SDS011;13500;52.514;13.462;2023-04-22T07:20:30;11.30;;;7.50;;
8654;SDS011;13500;52.514;13.462;2023-04-22T07:22:58;9.07;;;7.57;;
8654;SDS011;13500;52.514;13.462;2023-04-22T07:25:26;10.07;;;7.53;;
8654;SDS011;13500;52.514;13.462;2023-04-22T07:27:54;9.13;;;7.07;;
8654;SDS011;13500;52.514;13.462;2023-04-22T07:30:23;11.37;;;7.43;;
8654;SDS011;13500;52.514;13.462;2023-04-22T07:32:51;7.73;;;6.87;;
8654;SDS011;13500;52.514;13.462;2023-04-22T07:35:19;7.93;;;7.13;;
8654;SDS011;13500;52.514;13.462;2023-04-22T07:37:47;9.47;;;7.10;;
8654;SDS011;13500;52.514;13.462;2023-04-22T07:40:15;8.73;;;7.07;;
8654;SDS011;13500;52.514;13.462;2023-04-22T07:42:43;8.57;;;7.10;;
8654;SDS011;13500;52.514;13.462;2023-04-22T07:45:11;8.30;;;7.50;;
8654;SDS011;13500;52.514;13.462;2023-04-22T07:47:40;8.53;;;6.60;;
8654;SDS011;13500;52.514;13.462;2023-04-22T07:50:08;7.63;;;6.80;;
8654;SDS011;13500;52.514;13.462;2023-04-22T07:52:37;7.73;;;6.93;;
8654;SDS011;13500;52.514;13.462;2023-04-22T07:55:05;7.70;;;7.00;;
8654;SDS011;13500;52.514;13.462;2023-04-22T07:57:35;7.53;;;6.80;;
8654;SDS011;13500;52.514;13.462;2023-04-22T08:00:05;7.67;;;6.97;;
8654;SDS011;13500;52.514;13.462;2023-04-22T08:02:41;7.80;;;7.00;;
8654;SDS011;13500;52.514;13.462;2023-04-22T08:05:10;8.50;;;7.60;;
8654;SDS011;13500;52.514;13.462;2023-04-22T08:07:38;8.63;;;6.87;;
8654;SDS011;13500;52.514;13.462;2023-04-22T08:10:06;7.40;;;6.70;;
8654;SDS011;13500;52.514;13.462;2023-04-22T08:12:35;13.37;;;6.93;;
8654;SDS011;13500;52.514;13.462;2023-04-22T08:15:03;9.77;;;7.00;;
8654;SDS011;13500;52.514;13.462;2023-04-22T08:17:32;10.33;;;7.10;;
8654;SDS011;13500;52.514;13.462;2023-04-22T08:20:01;8.33;;;6.80;;
8654;SDS011;13500;52.514;13.462;2023-04-22T08:22:33;8.03;;;7.23;;
8654;SDS011;13500;52.514;13.462;2023-04-22T08:25:01;7.90;;;7.10;;
8654;SDS011;13500;52.514;13.462;2023-04-22T08:27:29;12.57;;;7.23;;
8654;SDS011;13500;52.514;13.462;2023-04-22T08:29:57;7.37;;;6.67;;
8654;SDS011;13500;52.514;13.462;2023-04-22T08:32:26;8.30;;;6.83;;
8654;SDS011;13500;52.514;13.462;2023-04-22T08:34:54;7.53;;;6.70;;
8654;SDS011;13500;52.514;13.462;2023-04-22T08:37:31;7.60;;;6.57;;
8654;SDS011;13500;52.514;13.462;2023-04-22T08:40:00;8.10;;;7.30;;
8654;SDS011;13500;52.514;13.462;2023-04-22T08:42:30;8.03;;;6.60;;
8654;SDS011;13500;52.514;13.462;2023-04-22T08:44:58;9.57;;;6.67;;
8654;SDS011;13500;52.514;13.462;2023-04-22T08:47:26;10.17;;;6.60;;
8654;SDS011;13500;52.514;13.462;2023-04-22T08:49:55;7.73;;;6.83;;
8654;SDS011;13500;52.514;13.462;2023-04-22T08:52:24;11.67;;;6.50;;
8654;SDS011;13500;52.514;13.462;2023-04-22T08:54:53;7.37;;;6.57;;
8654;SDS011;13500;52.514;13.462;2023-04-22T08:57:21;10.00;;;6.63;;
8654;SDS011;13500;52.514;13.462;2023-04-22T08:59:49;8.70;;;6.50;;
8654;SDS011;13500;52.514;13.462;2023-04-22T09:02:18;7.50;;;5.87;;
8654;SDS011;13500;52.514;13.462;2023-04-22T09:04:50;7.67;;;6.17;;
8654;SDS011;13500;52.514;13.462;2023-04-22T09:07:21;9.43;;;6.60;;
8654;SDS011;13500;52.514;13.462;2023-04-22T09:09:50;6.97;;;5.97;;
8654;SDS011;13500;52.514;13.462;2023-04-22T09:12:20;8.37;;;6.37;;
8654;SDS011;13500;52.514;13.462;2023-04-22T09:14:48;6.83;;;5.77;;
8654;SDS011;13500;52.514;13.462;2023-04-22T09:17:16;8.77;;;6.10;;
8654;SDS011;13500;52.514;13.462;2023-04-22T09:19:45;8.20;;;6.23;;
8654;SDS011;13500;52.514;13.462;2023-04-22T09:22:24;12.03;;;6.13;;
8654;SDS011;13500;52.514;13.462;2023-04-22T09:24:54;6.87;;;5.67;;
8654;SDS011;13500;52.514;13.462;2023-04-22T09:27:22;6.70;;;5.70;;
8654;SDS011;13500;52.514;13.462;2023-04-22T09:29:51;7.53;;;5.00;;
8654;SDS011;13500;52.514;13.462;2023-04-22T09:32:19;7.13;;;6.30;;
8654;SDS011;13500;52.514;13.462;2023-04-22T09:34:48;7.43;;;5.83;;
8654;SDS011;13500;52.514;13.462;2023-04-22T09:37:17;8.00;;;7.20;;
8654;SDS011;13500;52.514;13.462;2023-04-22T09:39:49;8.60;;;5.47;;
8654;SDS011;13500;52.514;13.462;2023-04-22T09:42:19;9.03;;;5.50;;
8654;SDS011;13500;52.514;13.462;2023-04-22T09:44:48;7.53;;;5.20;;
8654;SDS011;13500;52.514;13.462;2023-04-22T09:47:18;9.83;;;5.57;;
8654;SDS011;13500;52.514;13.462;2023-04-22T09:49:46;7.73;;;5.30;;
8654;SDS011;13500;52.514;13.462;2023-04-22T09:52:20;6.73;;;6.13;;
8654;SDS011;13500;52.514;13.462;2023-04-22T09:54:52;10.37;;;5.70;;
8654;SDS011;13500;52.514;13.462;2023-04-22T09:57:22;8.40;;;5.37;;
8654;SDS011;13500;52.514;13.462;2023-04-22T09:59:50;5.70;;;5.20;;
8654;SDS011;13500;52.514;13.462;2023-04-22T10:02:18;6.50;;;5.70;;
8654;SDS011;13500;52.514;13.462;2023-04-22T10:04:55;6.73;;;5.03;;
8654;SDS011;13500;52.514;13.462;2023-04-22T10:07:23;9.13;;;5.63;;
8654;SDS011;13500;52.514;13.462;2023-04-22T10:09:56;8.63;;;5.40;;
8654;SDS011;13500;52.514;13.462;2023-04-22T10:12:26;6.47;;;5.43;;
8654;SDS011;13500;52.514;13.462;2023-04-22T10:15:01;8.10;;;5.63;;
8654;SDS011;13500;52.514;13.462;2023-04-22T10:17:30;6.77;;;5.13;;
8654;SDS011;13500;52.514;13.462;2023-04-22T10:19:59;8.60;;;5.40;;
8654;SDS011;13500;52.514;13.462;2023-04-22T10:22:29;8.07;;;4.93;;
8654;SDS011;13500;52.514;13.462;2023-04-22T10:24:57;7.97;;;5.27;;
8654;SDS011;13500;52.514;13.462;2023-04-22T10:27:27;9.70;;;4.80;;
8654;SDS011;13500;52.514;13.462;2023-04-22T10:29:55;6.47;;;5.37;;
8654;SDS011;13500;52.514;13.462;2023-04-22T10:32:23;8.03;;;5.10;;
8654;SDS011;13500;52.514;13.462;2023-04-22T10:35:11;6.67;;;5.17;;
8654;SDS011;13500;52.514;13.462;2023-04-22T10:37:42;6.93;;;4.70;;
8654;SDS011;13500;52.514;13.462;2023-04-22T10:40:13;6.17;;;4.97;;
8654;SDS011;13500;52.514;13.462;2023-04-22T10:42:48;5.63;;;5.13;;
8654;SDS011;13500;52.514;13.462;2023-04-22T10:45:16;8.93;;;5.30;;
8654;SDS011;13500;52.514;13.462;2023-04-22T10:47:45;7.73;;;5.10;;
8654;SDS011;13500;52.514;13.462;2023-04-22T10:50:17;7.40;;;4.67;;
8654;SDS011;13500;52.514;13.462;2023-04-22T10:52:48;5.77;;;5.17;;
8654;SDS011;13500;52.514;13.462;2023-04-22T10:55:17;8.60;;;5.03;;
8654;SDS011;13500;52.514;13.462;2023-04-22T10:57:48;5.50;;;5.00;;
8654;SDS011;13500;52.514;13.462;2023-04-22T11:00:22;6.83;;;4.93;;
8654;SDS011;13500;52.514;13.462;2023-04-22T11:03:10;6.90;;;5.00;;
8654;SDS011;13500;52.514;13.462;2023-04-22T11:05:40;8.80;;;4.50;;
8654;SDS011;13500;52.514;13.462;2023-04-22T11:08:11;10.73;;;5.10;;
8654;SDS011;13500;52.514;13.462;2023-04-22T11:10:42;7.07;;;5.33;;
8654;SDS011;13500;52.514;13.462;2023-04-22T11:13:14;5.80;;;5.00;;
8654;SDS011;13500;52.514;13.462;2023-04-22T11:15:43;8.67;;;5.20;;
8654;SDS011;13500;52.514;13.462;2023-04-22T11:18:13;6.73;;;5.03;;
8654;SDS011;13500;52.514;13.462;2023-04-22T11:20:45;6.33;;;5.27;;
8654;SDS011;13500;52.514;13.462;2023-04-22T11:23:21;7.53;;;5.00;;
8654;SDS011;13500;52.514;13.462;2023-04-22T11:25:54;9.33;;;4.70;;
8654;SDS011;13500;52.514;13.462;2023-04-22T11:28:24;6.17;;;5.00;;
8654;SDS011;13500;52.514;13.462;2023-04-22T11:30:52;6.17;;;4.97;;
8654;SDS011;13500;52.514;13.462;2023-04-22T11:33:20;6.13;;;4.57;;
8654;SDS011;13500;52.514;13.462;2023-04-22T11:35:48;5.97;;;4.90;;
8654;SDS011;13500;52.514;13.462;2023-04-22T11:38:17;6.00;;;4.77;;
8654;SDS011;13500;52.514;13.462;2023-04-22T11:40:44;8.43;;;4.93;;
8654;SDS011;13500;52.514;13.462;2023-04-22T11:43:14;6.60;;;4.60;;
8654;SDS011;13500;52.514;13.462;2023-04-22T11:45:45;8.23;;;5.17;;
8654;SDS011;13500;52.514;13.462;2023-04-22T11:48:13;5.50;;;4.77;;
8654;SDS011;13500;52.514;13.462;2023-04-22T11:50:42;7.40;;;5.00;;
8654;SDS011;13500;52.514;13.462;2023-04-22T11:53:14;6.37;;;5.07;;
8654;SDS011;13500;52.514;13.462;2023-04-22T11:55:44;7.07;;;5.00;;
8654;SDS011;13500;52.514;13.462;2023-04-22T11:58:13;5.73;;;5.00;;
8654;SDS011;13500;52.514;13.462;2023-04-22T12:00:45;7.77;;;5.37;;
8654;SDS011;13500;52.514;13.462;2023-04-22T12:03:14;6.93;;;4.80;;
8654;SDS011;13500;52.514;13.462;2023-04-22T12:05:44;7.60;;;5.23;;
8654;SDS011;13500;52.514;13.462;2023-04-22T12:08:13;6.17;;;4.73;;
8654;SDS011;13500;52.514;13.462;2023-04-22T12:10:43;7.00;;;4.60;;
8654;SDS011;13500;52.514;13.462;2023-04-22T12:13:18;9.20;;;5.17;;
8654;SDS011;13500;52.514;13.462;2023-04-22T12:15:48;7.10;;;4.83;;
8654;SDS011;13500;52.514;13.462;2023-04-22T12:18:26;9.13;;;5.10;;
8654;SDS011;13500;52.514;13.462;2023-04-22T12:20:57;6.60;;;4.83;;
8654;SDS011;13500;52.514;13.462;2023-04-22T12:23:26;8.07;;;5.40;;
8654;SDS011;13500;52.514;13.462;2023-04-22T12:25:54;5.77;;;5.13;;
8654;SDS011;13500;52.514;13.462;2023-04-22T12:28:22;8.23;;;4.93;;
8654;SDS011;13500;52.514;13.462;2023-04-22T12:30:51;5.80;;;4.27;;
8654;SDS011;13500;52.514;13.462;2023-04-22T12:33:19;5.30;;;4.57;;
8654;SDS011;13500;52.514;13.462;2023-04-22T12:35:47;6.27;;;4.80;;
8654;SDS011;13500;52.514;13.462;2023-04-22T12:38:18;5.90;;;4.60;;
8654;SDS011;13500;52.514;13.462;2023-04-22T12:40:46;9.07;;;4.70;;
8654;SDS011;13500;52.514;13.462;2023-04-22T12:43:14;6.87;;;4.63;;
8654;SDS011;13500;52.514;13.462;2023-04-22T12:45:41;5.80;;;4.97;;
8654;SDS011;13500;52.514;13.462;2023-04-22T12:48:11;4.80;;;4.10;;
8654;SDS011;13500;52.514;13.462;2023-04-22T12:50:39;6.90;;;5.23;;
8654;SDS011;13500;52.514;13.462;2023-04-22T12:53:07;7.30;;;4.90;;
8654;SDS011;13500;52.514;13.462;2023-04-22T12:55:35;5.30;;;4.47;;
8654;SDS011;13500;52.514;13.462;2023-04-22T12:58:03;6.63;;;4.97;;
8654;SDS011;13500;52.514;13.462;2023-04-22T13:00:31;6.60;;;4.37;;
8654;SDS011;13500;52.514;13.462;2023-04-22T13:02:59;6.90;;;5.17;;
8654;SDS011;13500;52.514;13.462;2023-04-22T13:05:28;5.90;;;4.40;;
8654;SDS011;13500;52.514;13.462;2023-04-22T13:07:56;5.10;;;4.37;;
8654;SDS011;13500;52.514;13.462;2023-04-22T13:10:33;5.17;;;4.43;;
8654;SDS011;13500;52.514;13.462;2023-04-22T13:13:01;6.13;;;4.57;;
8654;SDS011;13500;52.514;13.462;2023-04-22T13:15:44;7.93;;;4.83;;
8654;SDS011;13500;52.514;13.462;2023-04-22T13:18:13;9.13;;;4.80;;
8654;SDS011;13500;52.514;13.462;2023-04-22T13:20:43;5.33;;;4.90;;
8654;SDS011;13500;52.514;13.462;2023-04-22T13:23:11;6.57;;;4.77;;
8654;SDS011;13500;52.514;13.462;2023-04-22T13:25:40;6.07;;;4.57;;
8654;SDS011;13500;52.514;13.462;2023-04-22T13:28:08;5.53;;;4.20;;
8654;SDS011;13500;52.514;13.462;2023-04-22T13:30:36;6.83;;;4.20;;
8654;SDS011;13500;52.514;13.462;2023-04-22T13:33:04;7.53;;;4.70;;
8654;SDS011;13500;52.514;13.462;2023-04-22T13:35:32;5.73;;;4.80;;
8654;SDS011;13500;52.514;13.462;2023-04-22T13:38:02;6.43;;;5.10;;
8654;SDS011;13500;52.514;13.462;2023-04-22T13:40:30;6.57;;;5.77;;
8654;SDS011;13500;52.514;13.462;2023-04-22T13:42:58;7.67;;;5.57;;
8654;SDS011;13500;52.514;13.462;2023-04-22T13:45:26;7.00;;;5.03;;
8654;SDS011;13500;52.514;13.462;2023-04-22T13:47:54;7.10;;;6.27;;
8654;SDS011;13500;52.514;13.462;2023-04-22T13:50:22;5.57;;;5.03;;
8654;SDS011;13500;52.514;13.462;2023-04-22T13:52:50;5.87;;;4.70;;
8654;SDS011;13500;52.514;13.462;2023-04-22T13:55:19;5.73;;;5.13;;
8654;SDS011;13500;52.514;13.462;2023-04-22T13:57:49;5.17;;;4.67;;
8654;SDS011;13500;52.514;13.462;2023-04-22T14:00:17;6.83;;;5.00;;
8654;SDS011;13500;52.514;13.462;2023-04-22T14:02:46;6.90;;;5.23;;
8654;SDS011;13500;52.514;13.462;2023-04-22T14:05:14;7.10;;;4.80;;
8654;SDS011;13500;52.514;13.462;2023-04-22T14:07:42;5.77;;;5.00;;
8654;SDS011;13500;52.514;13.462;2023-04-22T14:10:10;5.93;;;4.50;;
8654;SDS011;13500;52.514;13.462;2023-04-22T14:12:40;5.30;;;4.80;;
8654;SDS011;13500;52.514;13.462;2023-04-22T14:15:09;6.37;;;5.00;;
8654;SDS011;13500;52.514;13.462;2023-04-22T14:17:38;5.00;;;4.50;;
8654;SDS011;13500;52.514;13.462;2023-04-22T14:20:06;7.80;;;4.73;;
8654;SDS011;13500;52.514;13.462;2023-04-22T14:22:36;7.37;;;5.30;;
8654;SDS011;13500;52.514;13.462;2023-04-22T14:25:04;5.77;;;5.27;;
8654;SDS011;13500;52.514;13.462;2023-04-22T14:27:33;4.60;;;4.20;;
8654;SDS011;13500;52.514;13.462;2023-04-22T14:30:03;6.10;;;4.30;;
8654;SDS011;13500;52.514;13.462;2023-04-22T14:32:32;5.57;;;4.97;;
8654;SDS011;13500;52.514;13.462;2023-04-22T14:35:00;6.83;;;4.80;;
8654;SDS011;13500;52.514;13.462;2023-04-22T14:37:28;8.70;;;4.50;;
8654;SDS011;13500;52.514;13.462;2023-04-22T14:39:57;5.13;;;4.37;;
8654;SDS011;13500;52.514;13.462;2023-04-22T14:42:25;6.93;;;4.57;;
8654;SDS011;13500;52.514;13.462;2023-04-22T14:44:53;5.47;;;4.40;;
8654;SDS011;13500;52.514;13.462;2023-04-22T14:47:23;5.33;;;4.40;;
8654;SDS011;13500;52.514;13.462;2023-04-22T14:49:51;7.47;;;4.97;;
8654;SDS011;13500;52.514;13.462;2023-04-22T14:52:19;6.43;;;4.80;;
8654;SDS011;13500;52.514;13.462;2023-04-22T14:54:47;6.60;;;5.07;;
8654;SDS011;13500;52.514;13.462;2023-04-22T14:57:17;6.23;;;4.50;;
8654;SDS011;13500;52.514;13.462;2023-04-22T14:59:45;7.97;;;4.60;;